createdAt,value
2023-02-26T00:00:37.891Z,28.75
2023-02-26T00:03:06.159Z,27.92
2023-02-26T00:05:34.327Z,28.15
2023-02-26T00:08:05.948Z,27.55
2023-02-26T00:10:34.272Z,27.45
2023-02-26T00:13:03.341Z,28.67
2023-02-26T00:15:32.296Z,27.67
2023-02-26T00:18:02.337Z,26.45
2023-02-26T00:20:31.123Z,27.45
2023-02-26T00:22:59.977Z,26.58
2023-02-26T00:25:29.620Z,27.35
2023-02-26T00:27:58.279Z,26.52
2023-02-26T00:30:27.117Z,25.95
2023-02-26T00:32:55.757Z,26.73
2023-02-26T00:35:25.676Z,26.40
2023-02-26T00:38:00.545Z,25.30
2023-02-26T00:40:42.875Z,26.10
2023-02-26T00:43:14.345Z,25.73
2023-02-26T00:45:43.662Z,24.70
2023-02-26T00:48:22.485Z,24.90
2023-02-26T00:50:54.628Z,24.25
2023-02-26T00:53:24.066Z,24.02
2023-02-26T00:55:53.994Z,24.15
2023-02-26T00:58:22.633Z,23.73
2023-02-26T01:00:50.767Z,23.23
2023-02-26T01:03:19.508Z,23.42
2023-02-26T01:05:48.280Z,24.20
2023-02-26T01:08:18.713Z,23.08
2023-02-26T01:10:47.327Z,22.83
2023-02-26T01:13:17.218Z,22.45
2023-02-26T01:15:48.466Z,21.77
2023-02-26T01:18:20.069Z,21.35
2023-02-26T01:20:49.786Z,21.52
2023-02-26T01:23:19.317Z,21.48
2023-02-26T01:25:50.085Z,21.35
2023-02-26T01:28:20.451Z,20.75
2023-02-26T01:30:49.793Z,21.05
2023-02-26T01:33:20.871Z,20.40
2023-02-26T01:35:50.192Z,19.77
2023-02-26T01:38:22.305Z,19.75
2023-02-26T01:41:28.663Z,19.92
2023-02-26T01:44:22.144Z,19.10
2023-02-26T01:47:10.684Z,18.75
2023-02-26T01:49:39.466Z,18.60
2023-02-26T01:52:08.354Z,18.52
2023-02-26T01:54:37.290Z,18.05
2023-02-26T01:57:07.276Z,18.45
2023-02-26T01:59:38.765Z,17.30
2023-02-26T02:02:09.049Z,17.40
2023-02-26T02:04:37.811Z,16.60
2023-02-26T02:07:06.136Z,16.35
2023-02-26T02:09:34.882Z,16.58
2023-02-26T02:12:10.520Z,16.35
2023-02-26T02:14:45.215Z,16.02
2023-02-26T02:17:15.631Z,15.82
2023-02-26T02:20:12.413Z,15.98
2023-02-26T02:22:55.945Z,15.38
2023-02-26T02:26:01.060Z,14.95
2023-02-26T02:28:36.613Z,14.82
2023-02-26T02:31:08.351Z,14.23
2023-02-26T02:33:40.346Z,13.98
2023-02-26T02:36:10.692Z,13.95
2023-02-26T02:38:41.292Z,14.98
2023-02-26T02:41:12.729Z,14.73
2023-02-26T02:43:40.992Z,14.05
2023-02-26T02:46:12.731Z,13.98
2023-02-26T02:48:42.333Z,13.40
2023-02-26T02:51:13.492Z,13.05
2023-02-26T02:53:45.339Z,13.55
2023-02-26T02:56:25.844Z,13.50
2023-02-26T02:59:12.040Z,12.90
2023-02-26T03:01:41.937Z,12.57
2023-02-26T03:04:11.496Z,12.90
2023-02-26T03:06:39.875Z,13.20
2023-02-26T03:09:09.071Z,12.20
2023-02-26T03:11:37.314Z,12.07
2023-02-26T03:14:06.457Z,11.70
2023-02-26T03:16:58.444Z,11.90
2023-02-26T03:19:30.588Z,11.32
2023-02-26T03:22:04.240Z,11.25
2023-02-26T03:24:59.211Z,11.00
2023-02-26T03:27:30.313Z,11.18
2023-02-26T03:30:00.330Z,11.10
2023-02-26T03:32:31.542Z,10.88
2023-02-26T03:35:01.976Z,10.88
2023-02-26T03:37:33.476Z,10.38
2023-02-26T03:40:05.311Z,10.63
2023-02-26T03:42:37.493Z,10.27
2023-02-26T03:45:09.599Z,10.18
2023-02-26T03:47:40.284Z,10.32
2023-02-26T03:50:10.228Z,10.00
2023-02-26T03:52:49.968Z,9.52
2023-02-26T03:55:40.852Z,10.13
2023-02-26T03:58:28.439Z,9.57
2023-02-26T04:01:24.485Z,9.43
2023-02-26T04:03:56.891Z,9.27
2023-02-26T04:06:25.448Z,9.27
2023-02-26T04:08:53.728Z,8.85
2023-02-26T04:11:22.833Z,8.95
2023-02-26T04:13:51.170Z,8.45
2023-02-26T04:16:20.147Z,8.40
2023-02-26T04:18:48.394Z,9.32
2023-02-26T04:21:20.217Z,8.60
2023-02-26T04:23:49.172Z,8.20
2023-02-26T04:26:17.357Z,8.35
2023-02-26T04:28:47.090Z,8.13
2023-02-26T04:31:15.911Z,7.97
2023-02-26T04:33:44.312Z,8.10
2023-02-26T04:36:12.853Z,7.60
2023-02-26T04:38:42.379Z,8.27
2023-02-26T04:41:10.595Z,7.32
2023-02-26T04:43:39.120Z,7.88
2023-02-26T04:46:21.285Z,8.13
2023-02-26T04:48:49.610Z,7.47
2023-02-26T04:51:18.235Z,7.80
2023-02-26T04:53:48.231Z,7.55
2023-02-26T04:56:16.512Z,7.70
2023-02-26T04:58:46.040Z,7.15
2023-02-26T05:01:19.158Z,7.03
2023-02-26T05:03:47.479Z,6.80
2023-02-26T05:06:16.019Z,6.55
2023-02-26T05:08:44.398Z,6.93
2023-02-26T05:11:14.035Z,6.93
2023-02-26T05:13:42.346Z,6.78
2023-02-26T05:16:10.675Z,6.30
2023-02-26T05:18:39.048Z,6.82
2023-02-26T05:21:07.582Z,6.72
2023-02-26T05:23:35.933Z,6.28
2023-02-26T05:26:04.141Z,6.00
2023-02-26T05:28:36.665Z,6.10
2023-02-26T05:31:04.987Z,5.85
2023-02-26T05:33:33.079Z,5.95
2023-02-26T05:36:01.290Z,5.70
2023-02-26T05:38:29.438Z,6.35
2023-02-26T05:40:58.648Z,6.80
2023-02-26T05:43:27.125Z,5.70
2023-02-26T05:45:56.913Z,5.78
2023-02-26T05:48:25.150Z,5.43
2023-02-26T05:50:53.418Z,5.65
2023-02-26T05:53:21.786Z,5.45
2023-02-26T05:55:50.540Z,5.45
2023-02-26T05:58:18.762Z,5.25
2023-02-26T06:00:46.938Z,5.60
2023-02-26T06:03:16.665Z,5.55
2023-02-26T06:05:44.862Z,5.32
2023-02-26T06:08:15.679Z,5.35
2023-02-26T06:10:44.022Z,5.20
2023-02-26T06:13:12.300Z,5.18
2023-02-26T06:15:40.557Z,5.10
2023-02-26T06:18:09.005Z,4.78
2023-02-26T06:20:38.840Z,4.95
2023-02-26T06:23:07.019Z,5.20
2023-02-26T06:25:35.183Z,5.15
2023-02-26T06:28:03.362Z,5.32
2023-02-26T06:30:31.862Z,5.68
2023-02-26T06:33:00.081Z,5.47
2023-02-26T06:35:30.364Z,5.78
2023-02-26T06:38:00.106Z,6.13
2023-02-26T06:40:39.873Z,7.60
2023-02-26T06:43:08.202Z,7.72
2023-02-26T06:45:36.405Z,12.60
2023-02-26T06:48:04.773Z,11.38
2023-02-26T06:50:32.992Z,14.63
2023-02-26T06:53:02.650Z,20.52
2023-02-26T06:55:30.771Z,21.23
2023-02-26T06:57:59.008Z,21.20
2023-02-26T07:00:27.264Z,22.70
2023-02-26T07:02:55.515Z,21.42
2023-02-26T07:05:24.206Z,22.35
2023-02-26T07:07:52.404Z,29.63
2023-02-26T07:10:22.604Z,30.92
2023-02-26T07:12:50.786Z,29.65
2023-02-26T07:15:18.972Z,28.75
2023-02-26T07:17:47.144Z,27.58
2023-02-26T07:20:15.415Z,28.02
2023-02-26T07:22:44.046Z,28.10
2023-02-26T07:25:12.399Z,26.92
2023-02-26T07:27:43.801Z,28.52
2023-02-26T07:30:13.182Z,28.23
2023-02-26T07:32:41.356Z,26.70
2023-02-26T07:35:10.389Z,28.67
2023-02-26T07:37:39.469Z,28.75
2023-02-26T07:40:08.726Z,28.98
2023-02-26T07:42:36.887Z,29.35
2023-02-26T07:45:08.209Z,29.40
2023-02-26T07:47:36.536Z,32.05
2023-02-26T07:50:05.066Z,30.80
2023-02-26T07:52:33.203Z,32.08
2023-02-26T07:55:01.412Z,34.30
2023-02-26T07:57:29.533Z,36.67
2023-02-26T07:59:57.683Z,42.00
2023-02-26T08:02:27.340Z,36.15
2023-02-26T08:04:55.528Z,36.67
2023-02-26T08:07:23.673Z,35.10
2023-02-26T08:09:51.814Z,30.30
2023-02-26T08:12:20.050Z,32.28
2023-02-26T08:14:48.441Z,32.05
2023-02-26T08:17:16.652Z,35.13
2023-02-26T08:19:46.191Z,38.45
2023-02-26T08:22:14.296Z,36.22
2023-02-26T08:24:42.955Z,35.70
2023-02-26T08:27:12.685Z,34.53
2023-02-26T08:29:41.763Z,34.10
2023-02-26T08:32:10.552Z,32.90
2023-02-26T08:34:38.995Z,32.47
2023-02-26T08:37:11.740Z,33.13
2023-02-26T08:39:40.041Z,33.28
2023-02-26T08:42:08.541Z,35.20
2023-02-26T08:44:36.876Z,32.25
2023-02-26T08:47:05.197Z,36.20
2023-02-26T08:49:33.419Z,33.97
2023-02-26T08:52:01.820Z,34.30
2023-02-26T08:54:31.459Z,32.90
2023-02-26T08:57:00.058Z,31.83
2023-02-26T08:59:28.237Z,33.38
2023-02-26T09:01:56.530Z,33.72
2023-02-26T09:04:24.636Z,33.25
2023-02-26T09:06:52.866Z,33.22
2023-02-26T09:09:21.161Z,34.47
2023-02-26T09:11:50.830Z,32.53
2023-02-26T09:14:19.008Z,32.65
2023-02-26T09:16:48.909Z,32.83
2023-02-26T09:19:19.052Z,32.10
2023-02-26T09:21:47.161Z,32.65
2023-02-26T09:24:15.397Z,31.02
2023-02-26T09:26:43.797Z,31.00
2023-02-26T09:29:14.564Z,32.28
2023-02-26T09:31:42.825Z,31.85
2023-02-26T09:34:11.643Z,31.10
2023-02-26T09:36:39.923Z,30.90
2023-02-26T09:39:08.864Z,30.63
2023-02-26T09:41:39.668Z,30.02
2023-02-26T09:44:22.405Z,30.33
2023-02-26T09:46:55.262Z,29.10
2023-02-26T09:49:28.575Z,29.35
2023-02-26T09:51:58.539Z,29.48
2023-02-26T09:54:27.961Z,30.20
2023-02-26T09:56:58.424Z,28.88
2023-02-26T09:59:28.668Z,29.70
2023-02-26T10:01:59.829Z,28.35
2023-02-26T10:04:45.673Z,28.05
2023-02-26T10:07:18.219Z,27.63
2023-02-26T10:09:56.265Z,26.55
2023-02-26T10:12:26.114Z,26.70
2023-02-26T10:14:57.037Z,25.90
2023-02-26T10:17:30.165Z,24.80
2023-02-26T10:20:10.296Z,25.63
2023-02-26T10:22:42.077Z,24.90
2023-02-26T10:25:12.608Z,24.92
2023-02-26T10:27:50.351Z,24.63
2023-02-26T10:30:23.591Z,23.15
2023-02-26T10:32:56.819Z,23.70
2023-02-26T10:35:26.198Z,21.80
2023-02-26T10:37:56.504Z,23.85
2023-02-26T10:40:27.922Z,24.20
2023-02-26T10:42:58.282Z,26.63
2023-02-26T10:45:34.740Z,27.70
2023-02-26T10:48:22.232Z,27.90
2023-02-26T10:50:51.401Z,30.95
2023-02-26T10:53:19.550Z,28.55
2023-02-26T10:55:48.582Z,29.20
2023-02-26T10:58:18.360Z,31.15
2023-02-26T11:00:50.174Z,31.00
2023-02-26T11:03:20.615Z,31.13
2023-02-26T11:05:49.379Z,32.70
2023-02-26T11:08:19.489Z,33.95
2023-02-26T11:10:50.147Z,33.35
2023-02-26T11:13:18.366Z,36.90
2023-02-26T11:15:50.015Z,33.63
2023-02-26T11:18:20.823Z,36.88
2023-02-26T11:20:49.091Z,34.40
2023-02-26T11:23:19.944Z,35.33
2023-02-26T11:25:48.200Z,34.65
2023-02-26T11:28:22.027Z,33.97
2023-02-26T11:30:54.500Z,34.67
2023-02-26T11:33:29.031Z,35.92
2023-02-26T11:35:58.128Z,40.88
2023-02-26T11:38:27.243Z,39.78
2023-02-26T11:40:57.200Z,44.10
2023-02-26T11:43:28.038Z,42.58
2023-02-26T11:46:00.868Z,41.63
2023-02-26T11:48:30.685Z,44.53
2023-02-26T11:51:00.354Z,44.65
2023-02-26T11:53:32.482Z,44.00
2023-02-26T11:56:03.822Z,43.42
2023-02-26T11:58:36.425Z,42.88
2023-02-26T12:01:06.432Z,42.85
2023-02-26T12:03:35.318Z,44.97
2023-02-26T12:06:04.560Z,45.40
2023-02-26T12:08:38.374Z,43.17
2023-02-26T12:11:28.413Z,42.47
2023-02-26T12:14:03.320Z,42.78
2023-02-26T12:16:36.619Z,42.38
2023-02-26T12:19:07.524Z,42.05
2023-02-26T12:21:51.848Z,41.47
2023-02-26T12:24:59.135Z,40.80
2023-02-26T12:27:32.041Z,39.35
2023-02-26T12:30:23.330Z,38.38
2023-02-26T12:33:12.853Z,36.67
2023-02-26T12:35:45.344Z,37.17
2023-02-26T12:38:21.459Z,36.70
2023-02-26T12:41:08.309Z,35.80
2023-02-26T12:43:40.425Z,34.45
2023-02-26T12:46:13.227Z,34.63
2023-02-26T12:49:07.725Z,34.92
2023-02-26T12:51:43.879Z,35.70
2023-02-26T12:54:23.859Z,36.35
2023-02-26T12:57:40.866Z,36.72
2023-02-26T13:00:18.261Z,36.58
2023-02-26T13:03:34.438Z,39.85
2023-02-26T13:06:24.756Z,39.83
2023-02-26T13:08:56.357Z,39.25
2023-02-26T13:11:29.959Z,40.08
2023-02-26T13:14:05.997Z,40.15
2023-02-26T13:16:40.033Z,42.78
2023-02-26T13:19:16.024Z,41.00
2023-02-26T13:21:48.287Z,39.72
2023-02-26T13:24:17.852Z,39.97
2023-02-26T13:26:46.145Z,39.28
2023-02-26T13:29:16.865Z,41.13
2023-02-26T13:31:46.343Z,40.28
2023-02-26T13:34:17.223Z,43.47
2023-02-26T13:36:46.909Z,43.30
2023-02-26T13:39:36.256Z,43.53
2023-02-26T13:42:08.053Z,47.17
2023-02-26T13:44:40.049Z,45.60
2023-02-26T13:47:20.924Z,48.00
2023-02-26T13:49:54.786Z,49.88
2023-02-26T13:52:29.076Z,51.33
2023-02-26T13:54:59.358Z,51.63
2023-02-26T13:57:36.139Z,51.20
2023-02-26T14:00:13.320Z,51.72
2023-02-26T14:02:53.294Z,52.00
2023-02-26T14:05:36.072Z,53.28
2023-02-26T14:08:39.382Z,54.47
2023-02-26T14:11:48.553Z,54.63
2023-02-26T14:14:38.213Z,54.03
2023-02-26T14:17:31.861Z,55.00
2023-02-26T14:20:25.257Z,54.25
2023-02-26T14:22:55.698Z,55.70
2023-02-26T14:25:33.145Z,55.15
2023-02-26T14:28:36.037Z,54.08
2023-02-26T14:31:19.865Z,54.92
2023-02-26T14:33:50.465Z,55.13
2023-02-26T14:36:21.748Z,54.15
2023-02-26T14:38:50.305Z,53.20
2023-02-26T14:41:27.386Z,52.13
2023-02-26T14:44:00.624Z,52.50
2023-02-26T14:46:29.059Z,52.20
2023-02-26T14:48:57.763Z,51.72
2023-02-26T14:51:31.219Z,52.30
2023-02-26T14:54:09.795Z,50.03
2023-02-26T14:56:53.560Z,48.88
2023-02-26T14:59:30.140Z,56.17
2023-02-26T15:02:03.318Z,50.88
2023-02-26T15:04:53.348Z,51.38
2023-02-26T15:07:29.484Z,50.83
2023-02-26T15:10:09.813Z,50.85
2023-02-26T15:12:45.401Z,51.30
2023-02-26T15:15:30.476Z,50.03
2023-02-26T15:18:17.652Z,52.42
2023-02-26T15:20:50.170Z,51.63
2023-02-26T15:23:38.278Z,51.75
2023-02-26T15:26:07.000Z,52.72
2023-02-26T15:28:38.109Z,52.13
2023-02-26T15:31:06.916Z,53.30
2023-02-26T15:33:35.473Z,51.10
2023-02-26T15:36:07.659Z,57.85
2023-02-26T15:38:41.753Z,55.97
2023-02-26T15:41:09.874Z,54.28
2023-02-26T15:43:39.521Z,53.22
2023-02-26T15:46:08.098Z,53.30
2023-02-26T15:48:38.651Z,52.95
2023-02-26T15:51:07.968Z,53.75
2023-02-26T15:53:38.005Z,52.28
2023-02-26T15:56:07.447Z,50.92
2023-02-26T15:58:37.862Z,52.03
2023-02-26T16:01:07.536Z,52.58
2023-02-26T16:03:38.725Z,51.22
2023-02-26T16:06:08.837Z,51.72
2023-02-26T16:08:37.031Z,51.70
2023-02-26T16:11:06.257Z,49.67
2023-02-26T16:13:37.820Z,50.30
2023-02-26T16:16:10.067Z,55.13
2023-02-26T16:18:38.418Z,54.03
2023-02-26T16:21:07.711Z,53.22
2023-02-26T16:23:42.051Z,53.17
2023-02-26T16:26:10.856Z,54.25
2023-02-26T16:28:45.597Z,55.60
2023-02-26T16:31:19.346Z,52.70
2023-02-26T16:33:58.757Z,53.05
2023-02-26T16:36:28.856Z,53.17
2023-02-26T16:39:11.846Z,52.83
2023-02-26T16:41:40.955Z,50.65
2023-02-26T16:44:46.052Z,51.25
2023-02-26T16:47:15.946Z,51.10
2023-02-26T16:49:44.110Z,50.30
2023-02-26T16:52:17.205Z,49.20
2023-02-26T16:54:45.716Z,49.42
2023-02-26T16:57:16.185Z,49.78
2023-02-26T16:59:44.474Z,47.97
2023-02-26T17:02:15.638Z,48.92
2023-02-26T17:04:43.784Z,46.50
2023-02-26T17:07:18.795Z,44.25
2023-02-26T17:09:49.480Z,44.47
2023-02-26T17:12:18.503Z,42.13
2023-02-26T17:14:48.058Z,41.95
2023-02-26T17:17:18.317Z,42.30
2023-02-26T17:19:46.476Z,40.78
2023-02-26T17:22:18.749Z,41.72
2023-02-26T17:24:47.598Z,40.03
2023-02-26T17:27:18.210Z,38.13
2023-02-26T17:29:47.270Z,36.35
2023-02-26T17:32:21.856Z,37.97
2023-02-26T17:34:50.264Z,36.80
2023-02-26T17:37:18.396Z,36.75
2023-02-26T17:39:46.640Z,32.95
2023-02-26T17:42:16.564Z,34.05
2023-02-26T17:44:44.981Z,34.08
2023-02-26T17:47:14.537Z,33.67
2023-02-26T17:49:44.271Z,40.60
2023-02-26T17:52:12.494Z,43.25
2023-02-26T17:54:40.753Z,43.25
2023-02-26T17:57:09.381Z,39.20
2023-02-26T17:59:37.727Z,42.33
2023-02-26T18:02:13.231Z,46.22
2023-02-26T18:04:41.718Z,43.75
2023-02-26T18:07:15.968Z,46.63
2023-02-26T18:09:44.538Z,43.72
2023-02-26T18:12:14.023Z,43.67
2023-02-26T18:14:42.260Z,45.55
2023-02-26T18:17:14.672Z,43.58
2023-02-26T18:19:43.044Z,44.67
2023-02-26T18:22:14.749Z,43.58
2023-02-26T18:24:43.092Z,44.35
2023-02-26T18:27:14.360Z,45.17
2023-02-26T18:29:42.581Z,46.78
2023-02-26T18:32:13.669Z,45.53
2023-02-26T18:34:42.045Z,43.15
2023-02-26T18:37:13.357Z,43.58
2023-02-26T18:39:41.669Z,45.17
2023-02-26T18:42:13.009Z,47.40
2023-02-26T18:44:41.239Z,46.83
2023-02-26T18:47:10.484Z,51.05
2023-02-26T18:49:38.657Z,52.50
2023-02-26T18:52:06.748Z,50.00
2023-02-26T18:54:37.048Z,54.28
2023-02-26T18:57:05.413Z,52.78
2023-02-26T18:59:34.429Z,54.38
2023-02-26T19:02:03.247Z,52.90
2023-02-26T19:04:31.738Z,55.92
2023-02-26T19:06:59.949Z,56.83
2023-02-26T19:09:28.907Z,53.88
2023-02-26T19:11:58.550Z,54.72
2023-02-26T19:14:26.740Z,54.53
2023-02-26T19:16:54.969Z,54.53
2023-02-26T19:19:23.148Z,54.50
2023-02-26T19:21:51.404Z,57.35
2023-02-26T19:24:19.664Z,61.38
2023-02-26T19:26:47.796Z,56.58
2023-02-26T19:29:18.321Z,58.35
2023-02-26T19:31:46.777Z,59.75
2023-02-26T19:34:15.148Z,59.85
2023-02-26T19:36:48.509Z,58.17
2023-02-26T19:39:17.318Z,58.47
2023-02-26T19:41:45.844Z,60.15
2023-02-26T19:44:13.955Z,59.10
2023-02-26T19:46:43.617Z,58.83
2023-02-26T19:49:11.917Z,59.97
2023-02-26T19:51:40.011Z,57.90
2023-02-26T19:54:08.088Z,58.33
2023-02-26T19:56:36.479Z,57.97
2023-02-26T19:59:04.751Z,57.90
2023-02-26T20:01:33.042Z,59.33
2023-02-26T20:04:02.763Z,58.88
2023-02-26T20:06:30.884Z,59.50
2023-02-26T20:08:59.211Z,61.60
2023-02-26T20:11:27.607Z,60.83
2023-02-26T20:13:55.928Z,61.30
2023-02-26T20:16:24.033Z,62.13
2023-02-26T20:18:52.152Z,62.92
2023-02-26T20:21:22.325Z,61.85
2023-02-26T20:23:50.494Z,61.85
2023-02-26T20:26:18.712Z,63.40
2023-02-26T20:28:46.860Z,64.78
2023-02-26T20:31:15.095Z,63.97
2023-02-26T20:33:44.564Z,63.15
2023-02-26T20:36:12.960Z,63.60
2023-02-26T20:38:42.955Z,64.63
2023-02-26T20:41:11.158Z,65.38
2023-02-26T20:43:39.359Z,65.63
2023-02-26T20:46:07.578Z,66.53
2023-02-26T20:48:40.403Z,65.32
2023-02-26T20:51:10.044Z,63.78
2023-02-26T20:53:38.220Z,63.95
2023-02-26T20:56:09.088Z,66.90
2023-02-26T20:58:38.409Z,65.97
2023-02-26T21:01:06.634Z,63.05
2023-02-26T21:03:34.772Z,62.20
2023-02-26T21:06:02.876Z,64.95
2023-02-26T21:08:31.048Z,62.10
2023-02-26T21:10:59.216Z,64.72
2023-02-26T21:13:28.644Z,64.32
2023-02-26T21:15:57.414Z,61.28
2023-02-26T21:18:25.544Z,62.50
2023-02-26T21:20:53.694Z,62.47
2023-02-26T21:23:21.914Z,60.65
2023-02-26T21:25:50.081Z,59.55
2023-02-26T21:28:18.094Z,61.15
2023-02-26T21:30:47.657Z,60.13
2023-02-26T21:33:15.844Z,61.13
2023-02-26T21:35:44.018Z,60.65
2023-02-26T21:38:12.437Z,60.72
2023-02-26T21:40:40.587Z,59.45
2023-02-26T21:43:10.673Z,58.65
2023-02-26T21:45:38.862Z,57.17
2023-02-26T21:48:08.493Z,56.30
2023-02-26T21:50:36.689Z,57.03
2023-02-26T21:53:04.883Z,57.10
2023-02-26T21:55:33.095Z,55.35
2023-02-26T21:58:02.137Z,54.53
2023-02-26T22:00:30.341Z,54.20
2023-02-26T22:02:58.473Z,53.97
2023-02-26T22:05:28.052Z,55.38
2023-02-26T22:07:56.356Z,53.55
2023-02-26T22:10:24.531Z,52.75
2023-02-26T22:12:52.726Z,53.47
2023-02-26T22:15:21.334Z,52.65
2023-02-26T22:17:49.485Z,51.42
2023-02-26T22:20:17.888Z,51.05
2023-02-26T22:22:47.465Z,52.22
2023-02-26T22:25:15.583Z,49.83
2023-02-26T22:27:43.747Z,48.20
2023-02-26T22:30:13.112Z,49.25
2023-02-26T22:32:41.379Z,47.53
2023-02-26T22:35:11.082Z,46.92
2023-02-26T22:37:39.245Z,48.53
2023-02-26T22:40:10.020Z,46.15
2023-02-26T22:42:38.292Z,45.47
2023-02-26T22:45:07.411Z,46.47
2023-02-26T22:47:35.676Z,45.05
2023-02-26T22:50:03.956Z,44.90
2023-02-26T22:52:32.198Z,45.25
2023-02-26T22:55:00.386Z,44.92
2023-02-26T22:57:30.041Z,42.22
2023-02-26T22:59:58.415Z,43.55
2023-02-26T23:02:26.711Z,43.05
2023-02-26T23:04:55.043Z,41.88
2023-02-26T23:07:23.569Z,42.63
2023-02-26T23:09:52.559Z,40.42
2023-02-26T23:12:20.663Z,41.53
2023-02-26T23:14:50.255Z,40.22
2023-02-26T23:17:18.434Z,38.85
2023-02-26T23:19:46.688Z,39.00
2023-02-26T23:22:14.796Z,38.88
2023-02-26T23:24:43.055Z,39.35
2023-02-26T23:27:11.540Z,38.20
2023-02-26T23:29:39.735Z,37.63
2023-02-26T23:32:09.352Z,36.50
2023-02-26T23:34:37.566Z,36.60
2023-02-26T23:37:05.631Z,36.40
2023-02-26T23:39:33.872Z,36.75
2023-02-26T23:42:02.131Z,35.40
2023-02-26T23:44:30.522Z,35.35
2023-02-26T23:46:58.595Z,34.95
2023-02-26T23:49:28.203Z,34.33
2023-02-26T23:51:56.411Z,33.00
2023-02-26T23:54:24.696Z,33.38
2023-02-26T23:56:52.755Z,32.00
2023-02-26T23:59:20.797Z,33.30
